createdAt,value
2022-09-29T00:01:06.507Z,2.40
2022-09-29T00:03:33.578Z,1.90
2022-09-29T00:06:00.453Z,1.70
2022-09-29T00:08:28.364Z,1.60
2022-09-29T00:10:55.432Z,1.80
2022-09-29T00:13:22.556Z,1.90
2022-09-29T00:15:59.584Z,1.80
2022-09-29T00:18:27.291Z,1.30
2022-09-29T00:21:05.264Z,1.40
2022-09-29T00:23:33.069Z,1.50
2022-09-29T00:26:01.008Z,2.00
2022-09-29T00:28:28.376Z,1.70
2022-09-29T00:30:55.292Z,1.70
2022-09-29T00:33:22.544Z,1.90
2022-09-29T00:36:00.126Z,2.00
2022-09-29T00:38:28.075Z,1.90
2022-09-29T00:40:55.108Z,2.20
2022-09-29T00:43:46.449Z,2.00
2022-09-29T00:46:13.732Z,1.60
2022-09-29T00:48:41.085Z,1.70
2022-09-29T00:51:08.016Z,1.70
2022-09-29T00:53:35.493Z,1.60
2022-09-29T00:56:07.434Z,1.80
2022-09-29T00:58:45.476Z,2.10
2022-09-29T01:01:12.582Z,1.90
2022-09-29T01:03:42.273Z,2.00
2022-09-29T01:08:47.776Z,2.20
2022-09-29T01:11:14.755Z,2.00
2022-09-29T01:13:42.134Z,1.70
2022-09-29T01:16:09.054Z,1.40
2022-09-29T01:18:37.034Z,1.50
2022-09-29T01:21:36.166Z,1.50
2022-09-29T01:24:28.335Z,2.40
2022-09-29T01:27:15.916Z,2.10
2022-09-29T01:29:52.274Z,2.00
2022-09-29T01:32:29.266Z,1.80
2022-09-29T01:35:06.662Z,1.70
2022-09-29T01:37:51.625Z,2.00
2022-09-29T01:40:23.327Z,1.70
2022-09-29T01:43:08.256Z,1.40
2022-09-29T01:45:38.850Z,1.30
2022-09-29T01:48:10.982Z,1.50
2022-09-29T01:50:40.878Z,2.10
2022-09-29T01:53:29.240Z,2.30
2022-09-29T01:56:04.544Z,2.10
2022-09-29T01:58:38.230Z,2.20
2022-09-29T02:01:07.163Z,2.50
2022-09-29T02:03:40.660Z,2.40
2022-09-29T02:06:10.608Z,2.50
2022-09-29T02:08:44.676Z,2.10
2022-09-29T02:11:13.058Z,1.90
2022-09-29T02:13:48.388Z,1.90
2022-09-29T02:16:17.407Z,2.00
2022-09-29T02:18:58.317Z,2.30
2022-09-29T02:21:26.778Z,2.50
2022-09-29T02:23:54.201Z,2.90
2022-09-29T02:26:21.312Z,3.00
2022-09-29T02:28:50.979Z,3.10
2022-09-29T02:31:19.199Z,2.80
2022-09-29T02:33:46.276Z,2.20
2022-09-29T02:36:28.505Z,2.20
2022-09-29T02:39:15.977Z,2.80
2022-09-29T02:41:52.160Z,2.10
2022-09-29T02:44:45.950Z,2.70
2022-09-29T02:47:31.543Z,2.50
2022-09-29T02:50:01.746Z,2.90
2022-09-29T02:52:28.924Z,2.70
2022-09-29T02:55:14.016Z,2.70
2022-09-29T02:58:02.609Z,2.60
2022-09-29T03:02:56.888Z,2.50
2022-09-29T03:05:24.081Z,1.90
2022-09-29T03:07:51.389Z,2.40
2022-09-29T03:10:19.057Z,2.30
2022-09-29T03:12:49.034Z,2.30
2022-09-29T03:15:16.090Z,2.40
2022-09-29T03:17:43.904Z,2.80
2022-09-29T03:20:11.076Z,2.40
2022-09-29T03:22:38.277Z,2.60
2022-09-29T03:25:07.049Z,2.50
2022-09-29T03:27:34.029Z,2.50
2022-09-29T03:30:01.435Z,2.20
2022-09-29T03:32:28.920Z,2.80
2022-09-29T03:34:56.070Z,2.00
2022-09-29T03:37:23.219Z,1.90
2022-09-29T03:39:50.400Z,2.20
2022-09-29T03:42:17.320Z,2.20
2022-09-29T03:44:44.461Z,3.10
2022-09-29T03:47:11.471Z,2.60
2022-09-29T03:49:38.419Z,2.90
2022-09-29T03:52:05.566Z,3.20
2022-09-29T03:54:32.546Z,2.00
2022-09-29T03:56:59.395Z,1.70
2022-09-29T03:59:26.529Z,1.90
2022-09-29T04:01:53.424Z,2.00
2022-09-29T04:04:20.436Z,2.20
2022-09-29T04:06:47.289Z,1.90
2022-09-29T04:09:15.025Z,2.60
2022-09-29T04:11:42.324Z,2.30
2022-09-29T04:14:09.325Z,2.20
2022-09-29T04:16:36.723Z,1.70
2022-09-29T04:19:03.831Z,1.50
2022-09-29T04:21:30.733Z,1.50
2022-09-29T04:23:57.703Z,1.90
2022-09-29T04:26:24.765Z,2.20
2022-09-29T04:28:51.657Z,2.40
2022-09-29T04:31:18.642Z,2.40
2022-09-29T04:33:46.343Z,2.00
2022-09-29T04:36:13.436Z,3.00
2022-09-29T04:38:40.334Z,2.30
2022-09-29T04:41:07.403Z,2.00
2022-09-29T04:43:35.332Z,2.10
2022-09-29T04:46:03.954Z,2.60
2022-09-29T04:48:35.455Z,2.60
2022-09-29T04:51:03.649Z,2.50
2022-09-29T04:53:30.643Z,3.10
2022-09-29T04:55:57.747Z,2.00
2022-09-29T04:58:24.644Z,1.60
2022-09-29T05:00:51.893Z,2.60
2022-09-29T05:03:18.963Z,2.60
2022-09-29T05:05:45.868Z,2.90
2022-09-29T05:08:15.238Z,3.30
2022-09-29T05:10:42.977Z,3.40
2022-09-29T05:13:10.833Z,2.40
2022-09-29T05:15:38.048Z,1.90
2022-09-29T05:18:05.540Z,2.20
2022-09-29T05:20:41.780Z,2.10
2022-09-29T05:23:10.373Z,2.70
2022-09-29T05:25:38.275Z,2.50
2022-09-29T05:28:05.316Z,2.30
2022-09-29T05:30:33.913Z,2.00
2022-09-29T05:33:00.910Z,1.70
2022-09-29T05:35:27.768Z,1.80
2022-09-29T05:37:54.660Z,2.20
2022-09-29T05:40:24.370Z,2.50
2022-09-29T05:42:51.764Z,2.50
2022-09-29T05:45:18.824Z,3.30
2022-09-29T05:47:46.261Z,2.40
2022-09-29T05:50:13.205Z,2.00
2022-09-29T05:52:41.443Z,2.70
2022-09-29T05:55:10.721Z,1.90
2022-09-29T06:00:05.094Z,2.00
2022-09-29T06:02:38.472Z,2.40
2022-09-29T06:05:06.266Z,1.90
2022-09-29T06:07:33.351Z,2.40
2022-09-29T06:10:00.339Z,2.90
2022-09-29T06:12:27.338Z,3.90
2022-09-29T06:14:57.716Z,2.90
2022-09-29T06:17:26.100Z,2.40
2022-09-29T06:19:53.859Z,2.60
2022-09-29T06:22:20.687Z,2.30
2022-09-29T06:24:47.718Z,2.10
2022-09-29T06:27:17.551Z,3.10
2022-09-29T06:29:44.911Z,2.90
2022-09-29T06:32:12.631Z,5.50
2022-09-29T06:34:59.660Z,6.20
2022-09-29T06:37:35.724Z,7.00
2022-09-29T06:40:11.320Z,4.80
2022-09-29T06:42:39.058Z,4.20
2022-09-29T06:45:08.151Z,4.70
2022-09-29T06:47:35.239Z,3.90
2022-09-29T06:50:11.602Z,2.70
2022-09-29T06:53:01.591Z,3.40
2022-09-29T06:55:31.991Z,13.40
2022-09-29T06:58:02.928Z,9.10
2022-09-29T07:00:33.106Z,9.80
2022-09-29T07:03:00.017Z,5.60
2022-09-29T07:05:27.025Z,8.50
2022-09-29T07:08:00.118Z,6.30
2022-09-29T07:10:27.887Z,3.90
2022-09-29T07:12:55.628Z,2.60
2022-09-29T07:15:22.784Z,1.80
2022-09-29T07:17:52.762Z,4.60
2022-09-29T07:20:20.019Z,1.70
2022-09-29T07:22:47.616Z,2.10
2022-09-29T07:25:27.895Z,4.30
2022-09-29T07:28:01.878Z,2.40
2022-09-29T07:30:38.480Z,2.50
2022-09-29T07:33:07.576Z,1.10
2022-09-29T07:35:39.639Z,1.40
2022-09-29T07:38:06.980Z,1.50
2022-09-29T07:40:35.717Z,1.60
2022-09-29T07:43:03.112Z,2.10
2022-09-29T07:45:31.199Z,2.00
2022-09-29T07:47:58.521Z,1.80
2022-09-29T07:50:25.958Z,1.70
2022-09-29T07:52:52.786Z,1.70
2022-09-29T07:55:21.512Z,1.90
2022-09-29T07:57:48.962Z,1.10
2022-09-29T08:00:17.234Z,1.50
2022-09-29T08:02:44.714Z,1.90
2022-09-29T08:05:12.486Z,1.60
2022-09-29T08:07:39.320Z,1.60
2022-09-29T08:10:15.491Z,1.30
2022-09-29T08:12:44.462Z,1.40
2022-09-29T08:15:12.336Z,1.30
2022-09-29T08:17:39.338Z,1.20
2022-09-29T08:20:07.690Z,1.20
2022-09-29T08:22:35.905Z,2.20
2022-09-29T08:25:02.827Z,4.20
2022-09-29T08:27:29.903Z,6.50
2022-09-29T08:29:58.925Z,6.10
2022-09-29T08:32:25.814Z,5.10
2022-09-29T08:34:53.225Z,5.00
2022-09-29T08:37:20.558Z,7.30
2022-09-29T08:39:47.968Z,9.90
2022-09-29T08:42:56.590Z,5.50
2022-09-29T08:45:29.965Z,2.70
2022-09-29T08:48:12.465Z,2.00
2022-09-29T08:50:53.704Z,1.70
2022-09-29T08:53:28.191Z,1.90
2022-09-29T08:56:15.740Z,1.40
2022-09-29T08:58:43.063Z,2.70
2022-09-29T09:01:12.596Z,1.90
2022-09-29T09:03:52.736Z,1.60
2022-09-29T09:06:28.330Z,1.40
2022-09-29T09:09:18.979Z,1.70
2022-09-29T09:12:00.995Z,2.00
2022-09-29T09:15:20.372Z,2.90
2022-09-29T09:18:08.222Z,3.50
2022-09-29T09:20:37.155Z,3.50
2022-09-29T09:23:04.169Z,2.70
2022-09-29T09:25:51.977Z,3.40
2022-09-29T09:28:27.122Z,2.70
2022-09-29T09:30:55.962Z,4.70
2022-09-29T09:33:31.807Z,2.80
2022-09-29T09:36:29.158Z,5.80
2022-09-29T09:39:18.500Z,4.30
2022-09-29T09:41:48.176Z,3.90
2022-09-29T09:44:18.222Z,2.30
2022-09-29T09:46:54.246Z,1.70
2022-09-29T09:49:26.918Z,2.00
2022-09-29T09:52:00.872Z,1.40
2022-09-29T09:54:48.164Z,2.80
2022-09-29T09:57:44.387Z,2.10
2022-09-29T10:00:21.037Z,1.30
2022-09-29T10:02:53.067Z,2.10
2022-09-29T10:05:24.783Z,1.90
2022-09-29T10:07:51.776Z,2.80
2022-09-29T10:10:26.610Z,1.80
2022-09-29T10:13:00.010Z,1.90
2022-09-29T10:15:45.654Z,1.40
2022-09-29T10:18:14.741Z,1.10
2022-09-29T10:20:42.809Z,1.10
2022-09-29T10:23:27.071Z,1.40
2022-09-29T10:26:15.426Z,1.50
2022-09-29T10:28:45.810Z,1.50
2022-09-29T10:31:31.669Z,1.40
2022-09-29T10:34:15.899Z,1.80
2022-09-29T10:36:53.718Z,1.20
2022-09-29T10:39:50.488Z,1.00
2022-09-29T10:42:23.400Z,1.30
2022-09-29T10:45:12.834Z,1.30
2022-09-29T10:47:41.764Z,1.30
2022-09-29T10:50:17.664Z,1.10
2022-09-29T10:52:55.729Z,1.00
2022-09-29T10:55:26.975Z,1.10
2022-09-29T10:57:56.084Z,1.30
2022-09-29T11:00:26.791Z,1.30
2022-09-29T11:02:54.640Z,1.00
2022-09-29T11:05:23.642Z,1.40
2022-09-29T11:07:51.311Z,1.30
2022-09-29T11:10:28.985Z,2.10
2022-09-29T11:12:59.236Z,1.40
2022-09-29T11:15:28.664Z,1.10
2022-09-29T11:17:56.092Z,1.10
2022-09-29T11:20:25.508Z,1.60
2022-09-29T11:22:56.839Z,1.90
2022-09-29T11:25:44.249Z,1.50
2022-09-29T11:28:20.768Z,1.50
2022-09-29T11:31:09.598Z,1.30
2022-09-29T11:33:43.889Z,1.50
2022-09-29T11:36:25.202Z,2.80
2022-09-29T11:39:08.871Z,3.70
2022-09-29T11:41:36.581Z,2.60
2022-09-29T11:44:16.260Z,1.50
2022-09-29T11:47:09.459Z,1.60
2022-09-29T11:50:19.467Z,2.10
2022-09-29T11:53:05.842Z,2.10
2022-09-29T11:55:43.356Z,2.60
2022-09-29T11:58:19.078Z,2.40
2022-09-29T12:01:01.586Z,2.10
2022-09-29T12:03:37.276Z,1.50
2022-09-29T12:06:33.464Z,1.20
2022-09-29T12:09:33.944Z,1.30
2022-09-29T12:15:10.537Z,1.10
2022-09-29T12:17:41.809Z,1.10
2022-09-29T12:20:14.819Z,1.10
2022-09-29T12:22:44.911Z,1.20
2022-09-29T12:25:15.452Z,1.30
2022-09-29T12:27:42.721Z,1.50
2022-09-29T12:30:23.500Z,1.30
2022-09-29T12:32:51.326Z,1.40
2022-09-29T12:35:38.324Z,1.60
2022-09-29T12:38:16.190Z,3.10
2022-09-29T12:40:53.741Z,2.90
2022-09-29T12:43:33.224Z,3.20
2022-09-29T12:46:07.471Z,2.20
2022-09-29T12:48:57.728Z,1.40
2022-09-29T12:51:34.023Z,1.40
2022-09-29T12:54:14.768Z,1.20
2022-09-29T12:56:47.618Z,1.80
2022-09-29T12:59:17.842Z,1.40
2022-09-29T13:01:44.846Z,3.20
2022-09-29T13:05:00.860Z,2.00
2022-09-29T13:07:44.901Z,1.00
2022-09-29T13:10:22.844Z,4.10
2022-09-29T13:12:58.874Z,4.50
2022-09-29T13:16:06.227Z,6.30
2022-09-29T13:18:37.763Z,7.40
2022-09-29T13:21:09.252Z,5.10
2022-09-29T13:23:40.215Z,4.80
2022-09-29T13:26:49.649Z,8.20
2022-09-29T13:29:26.749Z,7.20
2022-09-29T13:31:55.269Z,5.40
2022-09-29T13:34:33.301Z,5.90
2022-09-29T13:37:07.384Z,9.50
2022-09-29T13:39:35.282Z,8.70
2022-09-29T13:42:37.728Z,9.00
2022-09-29T13:45:20.728Z,11.00
2022-09-29T13:47:51.152Z,11.60
2022-09-29T13:50:40.261Z,9.00
2022-09-29T13:53:19.101Z,9.80
2022-09-29T13:55:56.396Z,11.80
2022-09-29T13:58:39.428Z,8.30
2022-09-29T14:01:07.122Z,10.30
2022-09-29T14:03:35.392Z,8.60
2022-09-29T14:06:40.283Z,5.30
2022-09-29T14:09:08.355Z,2.70
2022-09-29T14:11:40.645Z,3.00
2022-09-29T14:14:24.589Z,2.30
2022-09-29T14:17:04.680Z,2.00
2022-09-29T14:19:52.532Z,2.30
2022-09-29T14:22:32.142Z,1.80
2022-09-29T14:25:28.535Z,2.10
2022-09-29T14:28:18.527Z,2.10
2022-09-29T14:30:53.301Z,2.90
2022-09-29T14:33:29.375Z,2.60
2022-09-29T14:35:59.519Z,2.50
2022-09-29T14:39:24.750Z,4.00
2022-09-29T14:41:46.309Z,8.20
2022-09-29T14:44:52.439Z,7.90
2022-09-29T14:47:47.615Z,5.20
2022-09-29T14:50:49.654Z,4.10
2022-09-29T14:53:35.990Z,4.30
2022-09-29T14:56:10.100Z,4.00
2022-09-29T14:58:47.178Z,3.00
2022-09-29T15:01:23.150Z,2.90
2022-09-29T15:03:53.301Z,2.60
2022-09-29T15:06:25.203Z,2.00
2022-09-29T15:09:24.807Z,2.20
2022-09-29T15:12:02.958Z,2.50
2022-09-29T15:14:35.981Z,3.20
2022-09-29T15:19:58.908Z,5.30
2022-09-29T15:22:45.790Z,5.80
2022-09-29T15:25:21.945Z,4.30
2022-09-29T15:27:51.601Z,6.80
2022-09-29T15:30:21.465Z,7.30
2022-09-29T15:32:49.789Z,5.50
2022-09-29T15:35:23.621Z,5.40
2022-09-29T15:37:50.498Z,5.80
2022-09-29T15:40:19.366Z,4.70
2022-09-29T15:42:47.019Z,5.40
2022-09-29T15:45:22.930Z,3.40
2022-09-29T15:47:59.033Z,4.00
2022-09-29T15:50:26.488Z,3.90
2022-09-29T15:52:55.290Z,3.70
2022-09-29T15:55:23.658Z,2.90
2022-09-29T15:57:51.326Z,3.00
2022-09-29T16:00:21.480Z,1.70
2022-09-29T16:02:49.019Z,2.00
2022-09-29T16:05:20.862Z,2.10
2022-09-29T16:08:04.317Z,2.40
2022-09-29T16:10:48.375Z,2.50
2022-09-29T16:13:21.684Z,2.60
2022-09-29T16:15:50.974Z,2.60
2022-09-29T16:18:32.675Z,3.60
2022-09-29T16:24:02.745Z,4.10
2022-09-29T16:26:52.274Z,5.00
2022-09-29T16:29:19.371Z,4.80
2022-09-29T16:31:47.689Z,4.30
2022-09-29T16:34:23.682Z,5.00
2022-09-29T16:37:14.658Z,6.00
2022-09-29T16:39:46.349Z,6.00
2022-09-29T16:42:31.481Z,5.10
2022-09-29T16:44:59.390Z,4.40
2022-09-29T16:47:27.820Z,3.60
2022-09-29T16:50:09.280Z,3.80
2022-09-29T16:52:44.616Z,2.40
2022-09-29T16:55:14.253Z,2.40
2022-09-29T16:58:00.624Z,2.50
2022-09-29T17:00:27.995Z,4.00
2022-09-29T17:02:58.145Z,4.20
2022-09-29T17:05:25.416Z,4.00
2022-09-29T17:08:00.665Z,4.10
2022-09-29T17:10:27.645Z,4.80
2022-09-29T17:12:55.512Z,4.30
2022-09-29T17:15:23.505Z,4.90
2022-09-29T17:17:54.724Z,4.70
2022-09-29T17:20:30.273Z,4.20
2022-09-29T17:23:00.142Z,3.30
2022-09-29T17:25:27.554Z,5.60
2022-09-29T17:28:13.036Z,6.10
2022-09-29T17:30:43.876Z,4.90
2022-09-29T17:33:12.964Z,3.30
2022-09-29T17:35:41.585Z,4.30
2022-09-29T17:38:09.701Z,5.00
2022-09-29T17:40:56.451Z,5.50
2022-09-29T17:43:24.789Z,5.50
2022-09-29T17:45:52.550Z,4.70
2022-09-29T17:48:20.518Z,4.00
2022-09-29T17:50:49.625Z,3.80
2022-09-29T17:53:19.219Z,3.90
2022-09-29T17:55:49.727Z,3.60
2022-09-29T17:58:17.768Z,3.40
2022-09-29T18:00:50.396Z,3.20
2022-09-29T18:03:18.907Z,3.60
2022-09-29T18:05:47.559Z,3.20
2022-09-29T18:08:16.142Z,4.40
2022-09-29T18:10:54.709Z,2.60
2022-09-29T18:13:22.420Z,2.70
2022-09-29T18:15:50.150Z,3.30
2022-09-29T18:18:19.923Z,4.10
2022-09-29T18:20:47.451Z,3.90
2022-09-29T18:23:15.551Z,3.00
2022-09-29T18:25:47.221Z,3.30
2022-09-29T18:28:15.862Z,3.30
2022-09-29T18:30:48.612Z,3.60
2022-09-29T18:33:17.225Z,3.80
2022-09-29T18:35:47.247Z,4.00
2022-09-29T18:38:14.308Z,3.40
2022-09-29T18:40:42.667Z,3.90
2022-09-29T18:43:11.893Z,2.70
2022-09-29T18:45:39.546Z,2.70
2022-09-29T18:48:07.390Z,3.20
2022-09-29T18:50:36.791Z,2.80
2022-09-29T18:53:04.042Z,3.70
2022-09-29T18:55:31.842Z,4.10
2022-09-29T18:58:00.031Z,5.00
2022-09-29T19:00:31.324Z,4.50
2022-09-29T19:03:00.224Z,4.50
2022-09-29T19:05:29.956Z,4.90
2022-09-29T19:07:59.020Z,4.80
2022-09-29T19:10:26.850Z,5.60
2022-09-29T19:12:58.770Z,4.40
2022-09-29T19:15:26.405Z,4.60
2022-09-29T19:17:56.856Z,5.40
2022-09-29T19:20:26.372Z,6.40
2022-09-29T19:22:54.327Z,6.10
2022-09-29T19:25:24.017Z,5.90
2022-09-29T19:27:51.469Z,7.10
2022-09-29T19:30:20.567Z,7.40
2022-09-29T19:32:48.423Z,7.70
2022-09-29T19:35:18.060Z,7.10
2022-09-29T19:37:45.100Z,6.20
2022-09-29T19:40:16.438Z,4.60
2022-09-29T19:42:43.487Z,4.90
2022-09-29T19:45:11.453Z,4.90
2022-09-29T19:47:40.129Z,6.20
2022-09-29T19:50:26.588Z,5.60
2022-09-29T19:52:55.813Z,5.70
2022-09-29T19:55:23.577Z,8.10
2022-09-29T19:57:50.530Z,8.20
2022-09-29T20:00:19.874Z,9.60
2022-09-29T20:02:47.367Z,8.90
2022-09-29T20:05:15.876Z,10.20
2022-09-29T20:07:46.807Z,6.70
2022-09-29T20:10:17.239Z,5.30
2022-09-29T20:12:44.901Z,5.70
2022-09-29T20:15:12.048Z,4.80
2022-09-29T20:17:41.208Z,6.50
2022-09-29T20:20:09.398Z,6.10
2022-09-29T20:22:37.077Z,6.70
2022-09-29T20:25:09.205Z,6.30
2022-09-29T20:27:36.787Z,6.60
2022-09-29T20:30:05.216Z,6.60
2022-09-29T20:32:33.795Z,6.40
2022-09-29T20:35:00.635Z,6.50
2022-09-29T20:37:29.147Z,6.20
2022-09-29T20:39:56.517Z,7.30
2022-09-29T20:42:23.719Z,7.70
2022-09-29T20:44:55.185Z,7.90
2022-09-29T20:47:25.285Z,6.80
2022-09-29T20:49:56.537Z,7.00
2022-09-29T20:52:24.468Z,6.10
2022-09-29T20:54:51.778Z,6.50
2022-09-29T20:57:18.859Z,6.00
2022-09-29T20:59:46.189Z,4.90
2022-09-29T21:02:13.838Z,4.40
2022-09-29T21:04:42.589Z,4.10
2022-09-29T21:07:30.713Z,4.60
2022-09-29T21:09:58.699Z,4.80
2022-09-29T21:12:28.083Z,5.70
2022-09-29T21:14:55.196Z,7.00
2022-09-29T21:17:22.229Z,6.80
2022-09-29T21:19:50.617Z,6.00
2022-09-29T21:22:17.689Z,6.10
2022-09-29T21:24:44.955Z,5.90
2022-09-29T21:27:12.702Z,5.10
2022-09-29T21:29:40.045Z,5.80
2022-09-29T21:32:07.278Z,6.70
2022-09-29T21:35:10.216Z,8.80
2022-09-29T21:37:37.339Z,7.10
2022-09-29T21:40:04.712Z,8.20
2022-09-29T21:42:33.687Z,10.50
2022-09-29T21:45:01.188Z,8.50
2022-09-29T21:47:48.086Z,9.20
2022-09-29T21:50:15.242Z,4.70
2022-09-29T21:52:43.733Z,5.80
2022-09-29T21:55:10.662Z,5.90
2022-09-29T21:57:38.485Z,5.60
2022-09-29T22:00:06.080Z,6.30
2022-09-29T22:02:35.537Z,6.00
2022-09-29T22:05:02.829Z,6.20
2022-09-29T22:07:31.260Z,6.40
2022-09-29T22:09:59.083Z,6.30
2022-09-29T22:12:26.338Z,6.50
2022-09-29T22:14:53.533Z,4.90
2022-09-29T22:17:21.135Z,4.80
2022-09-29T22:19:48.171Z,5.40
2022-09-29T22:22:15.252Z,5.80
2022-09-29T22:24:42.874Z,5.40
2022-09-29T22:27:10.445Z,5.70
2022-09-29T22:29:37.517Z,5.80
2022-09-29T22:32:05.024Z,6.00
2022-09-29T22:34:32.178Z,6.10
2022-09-29T22:37:00.413Z,5.80
2022-09-29T22:39:28.387Z,5.00
2022-09-29T22:41:55.513Z,4.50
2022-09-29T22:44:22.495Z,4.80
2022-09-29T22:46:49.775Z,4.50
2022-09-29T22:49:16.926Z,5.50
2022-09-29T22:51:45.067Z,5.00
2022-09-29T22:54:14.371Z,5.70
2022-09-29T22:56:41.454Z,6.10
2022-09-29T22:59:08.911Z,6.20
2022-09-29T23:01:36.351Z,4.50
2022-09-29T23:04:04.342Z,4.90
2022-09-29T23:06:32.759Z,4.90
2022-09-29T23:09:00.264Z,5.40
2022-09-29T23:11:27.367Z,5.60
2022-09-29T23:13:54.708Z,6.20
2022-09-29T23:16:21.843Z,7.00
2022-09-29T23:18:55.426Z,6.30
2022-09-29T23:21:22.958Z,6.50
2022-09-29T23:24:07.888Z,4.60
2022-09-29T23:26:35.174Z,4.70
2022-09-29T23:29:03.768Z,5.20
2022-09-29T23:31:30.711Z,5.20
2022-09-29T23:33:58.970Z,5.90
2022-09-29T23:36:27.825Z,5.70
2022-09-29T23:39:10.714Z,5.50
2022-09-29T23:41:43.415Z,5.30
2022-09-29T23:44:15.528Z,4.80
2022-09-29T23:46:45.690Z,4.50
2022-09-29T23:49:14.717Z,4.90
2022-09-29T23:51:44.611Z,5.40
2022-09-29T23:54:12.525Z,5.30
2022-09-29T23:56:39.588Z,6.00
2022-09-29T23:59:07.146Z,5.60
